Terminal Aerodrome Forecast
Issued by NWS El Paso, TX

Home | Current Version | Previous Version | Text Only | Print | Product List | Glossary On
Versions: 1 2 3 4 5 6 7 8 9 10 11 12 13 14
000
FTUS44 KEPZ 191700 RRA
TAFELP
TAF
KELP 191748Z 1918/2018 30010KT P6SM VCTS SCT040CB BKN120 BKN250
     FM192000 24010KT P6SM VCTS SCT060CB BKN100 BKN250
      TEMPO 1922/2002 VRB30G42KT 5SM TSRAGS BKN030CB OVC080
     FM200200 28010G18KT P6SM VCTS SCT050CB BKN080 OVC150
      TEMPO 2003/2007 VRB30G40KT 6SM TSRAGS BKN040CB OVC100
     FM201000 26010KT P6SM VCTS SCT050CB SCT100 BKN200=

USA.gov is the U.S. government's official web portal to all federal, state and local government web resources and services.